createdAt,value
2023-04-07T00:01:36.140Z,0.30
2023-04-07T00:04:03.489Z,0.15
2023-04-07T00:06:30.947Z,0.30
2023-04-07T00:08:58.033Z,0.30
2023-04-07T00:11:24.953Z,0.10
2023-04-07T00:13:52.270Z,0.20
2023-04-07T00:16:19.347Z,0.30
2023-04-07T00:18:46.669Z,0.40
2023-04-07T00:21:13.638Z,0.30
2023-04-07T00:23:40.620Z,0.20
2023-04-07T00:26:07.634Z,0.22
2023-04-07T00:28:34.671Z,0.20
2023-04-07T00:31:01.805Z,0.20
2023-04-07T00:33:28.800Z,0.40
2023-04-07T00:35:58.277Z,0.30
2023-04-07T00:38:25.228Z,0.20
2023-04-07T00:40:58.980Z,0.30
2023-04-07T00:43:26.481Z,0.30
2023-04-07T00:45:54.722Z,0.20
2023-04-07T00:48:22.085Z,0.20
2023-04-07T00:50:49.359Z,0.15
2023-04-07T00:53:16.895Z,0.30
2023-04-07T00:55:44.005Z,0.30
2023-04-07T00:58:11.418Z,0.32
2023-04-07T01:01:05.285Z,0.20
2023-04-07T01:03:56.306Z,0.20
2023-04-07T01:09:02.393Z,0.30
2023-04-07T01:11:37.772Z,0.20
2023-04-07T01:14:06.560Z,0.20
2023-04-07T01:16:42.002Z,0.30
2023-04-07T01:19:23.477Z,0.30
2023-04-07T01:21:53.454Z,0.40
2023-04-07T01:24:35.362Z,0.20
2023-04-07T01:27:19.858Z,0.30
2023-04-07T01:29:48.815Z,0.25
2023-04-07T01:32:18.683Z,0.30
2023-04-07T01:34:48.427Z,0.40
2023-04-07T01:37:16.834Z,0.22
2023-04-07T01:39:44.034Z,0.32
2023-04-07T01:42:11.463Z,0.20
2023-04-07T01:44:39.051Z,0.30
2023-04-07T01:47:07.075Z,0.30
2023-04-07T01:49:36.531Z,0.40
2023-04-07T01:52:04.988Z,0.40
2023-04-07T01:54:32.433Z,0.30
2023-04-07T01:56:59.433Z,0.22
2023-04-07T01:59:26.486Z,0.30
2023-04-07T02:01:53.825Z,0.20
2023-04-07T02:04:47.792Z,0.30
2023-04-07T02:07:21.534Z,0.30
2023-04-07T02:09:51.970Z,0.30
2023-04-07T02:12:19.503Z,0.32
2023-04-07T02:14:46.743Z,0.30
2023-04-07T02:17:16.830Z,0.43
2023-04-07T02:19:45.475Z,0.32
2023-04-07T02:22:13.650Z,0.40
2023-04-07T02:24:43.605Z,0.28
2023-04-07T02:27:10.690Z,0.30
2023-04-07T02:29:37.650Z,0.30
2023-04-07T02:32:05.807Z,0.20
2023-04-07T02:34:32.753Z,0.30
2023-04-07T02:36:59.724Z,0.30
2023-04-07T02:39:26.668Z,0.30
2023-04-07T02:41:53.648Z,0.30
2023-04-07T02:44:20.638Z,0.30
2023-04-07T02:46:47.682Z,0.30
2023-04-07T02:49:14.599Z,0.30
2023-04-07T02:51:41.624Z,0.30
2023-04-07T02:54:08.604Z,0.30
2023-04-07T02:56:35.691Z,0.30
2023-04-07T02:59:02.637Z,0.30
2023-04-07T03:01:29.605Z,0.20
2023-04-07T03:03:56.902Z,0.30
2023-04-07T03:06:24.253Z,0.30
2023-04-07T03:08:51.236Z,0.40
2023-04-07T03:11:18.335Z,0.20
2023-04-07T03:13:45.289Z,0.30
2023-04-07T03:16:12.357Z,0.28
2023-04-07T03:18:39.325Z,0.30
2023-04-07T03:21:06.339Z,0.30
2023-04-07T03:23:33.332Z,0.40
2023-04-07T03:26:00.352Z,0.40
2023-04-07T03:28:27.300Z,0.20
2023-04-07T03:30:54.336Z,0.20
2023-04-07T03:33:21.379Z,0.20
2023-04-07T03:35:48.340Z,0.25
2023-04-07T03:38:15.419Z,0.20
2023-04-07T03:40:42.293Z,0.20
2023-04-07T03:43:12.912Z,0.22
2023-04-07T03:45:40.148Z,0.40
2023-04-07T03:48:10.874Z,0.28
2023-04-07T03:50:38.717Z,0.20
2023-04-07T03:53:05.829Z,0.20
2023-04-07T03:55:34.485Z,0.20
2023-04-07T03:58:01.610Z,0.20
2023-04-07T04:00:28.631Z,0.20
2023-04-07T04:02:55.810Z,0.30
2023-04-07T04:05:22.817Z,0.20
2023-04-07T04:07:51.646Z,0.40
2023-04-07T04:10:18.805Z,0.30
2023-04-07T04:12:47.974Z,0.20
2023-04-07T04:15:15.889Z,0.40
2023-04-07T04:17:42.990Z,0.30
2023-04-07T04:20:10.353Z,0.25
2023-04-07T04:22:37.342Z,0.32
2023-04-07T04:25:05.271Z,0.50
2023-04-07T04:27:32.249Z,1.15
2023-04-07T04:29:59.223Z,1.38
2023-04-07T04:32:26.206Z,0.50
2023-04-07T04:34:53.177Z,0.90
2023-04-07T04:37:20.166Z,0.73
2023-04-07T04:39:47.133Z,0.80
2023-04-07T04:42:14.053Z,0.68
2023-04-07T04:44:41.178Z,1.20
2023-04-07T04:47:08.295Z,0.90
2023-04-07T04:49:35.262Z,1.83
2023-04-07T04:52:02.383Z,3.15
2023-04-07T04:54:29.726Z,2.20
2023-04-07T04:56:57.768Z,3.20
2023-04-07T04:59:24.732Z,4.53
2023-04-07T05:01:51.753Z,2.33
2023-04-07T05:04:19.047Z,1.38
2023-04-07T05:06:46.549Z,1.30
2023-04-07T05:09:13.558Z,1.40
2023-04-07T05:11:41.860Z,1.10
2023-04-07T05:14:08.778Z,3.28
2023-04-07T05:16:37.175Z,1.20
2023-04-07T05:19:04.258Z,1.20
2023-04-07T05:21:31.723Z,1.20
2023-04-07T05:23:58.787Z,1.60
2023-04-07T05:26:26.455Z,1.17
2023-04-07T05:28:53.433Z,1.30
2023-04-07T05:31:20.680Z,1.73
2023-04-07T05:33:47.766Z,0.98
2023-04-07T05:36:14.842Z,1.30
2023-04-07T05:38:42.279Z,1.23
2023-04-07T05:41:09.260Z,1.10
2023-04-07T05:43:36.243Z,1.25
2023-04-07T05:46:03.300Z,0.63
2023-04-07T05:48:30.338Z,1.08
2023-04-07T05:50:57.387Z,0.90
2023-04-07T05:53:24.388Z,1.05
2023-04-07T05:55:51.437Z,1.02
2023-04-07T05:58:18.409Z,0.98
2023-04-07T06:00:45.533Z,0.80
2023-04-07T06:03:12.606Z,0.70
2023-04-07T06:05:43.850Z,0.60
2023-04-07T06:08:11.225Z,0.70
2023-04-07T06:10:38.165Z,0.75
2023-04-07T06:13:05.234Z,0.68
2023-04-07T06:15:32.307Z,0.95
2023-04-07T06:17:59.532Z,0.70
2023-04-07T06:20:28.140Z,0.60
2023-04-07T06:22:55.652Z,1.75
2023-04-07T06:25:22.688Z,2.22
2023-04-07T06:27:49.649Z,1.08
2023-04-07T06:30:16.730Z,0.82
2023-04-07T06:32:43.821Z,0.77
2023-04-07T06:35:10.941Z,0.55
2023-04-07T06:37:39.562Z,0.88
2023-04-07T06:40:08.113Z,0.75
2023-04-07T06:42:35.027Z,0.82
2023-04-07T06:45:02.044Z,0.60
2023-04-07T06:47:29.890Z,0.60
2023-04-07T06:49:56.891Z,0.50
2023-04-07T06:52:23.896Z,0.50
2023-04-07T06:54:50.842Z,0.55
2023-04-07T06:57:17.822Z,0.77
2023-04-07T06:59:44.950Z,0.93
2023-04-07T07:02:12.129Z,0.98
2023-04-07T07:04:39.349Z,0.90
2023-04-07T07:07:06.367Z,0.90
2023-04-07T07:09:33.314Z,0.90
2023-04-07T07:12:04.018Z,0.85
2023-04-07T07:14:31.528Z,1.10
2023-04-07T07:16:58.599Z,0.73
2023-04-07T07:19:25.687Z,0.57
2023-04-07T07:21:52.842Z,0.68
2023-04-07T07:24:19.758Z,0.57
2023-04-07T07:26:46.709Z,0.50
2023-04-07T07:29:13.704Z,0.60
2023-04-07T07:31:40.768Z,0.60
2023-04-07T07:34:07.922Z,0.52
2023-04-07T07:36:34.987Z,0.60
2023-04-07T07:39:02.232Z,0.77
2023-04-07T07:41:29.268Z,0.50
2023-04-07T07:43:56.411Z,0.70
2023-04-07T07:46:26.541Z,0.70
2023-04-07T07:48:54.192Z,0.98
2023-04-07T07:51:21.492Z,0.70
2023-04-07T07:53:49.009Z,0.80
2023-04-07T07:56:16.509Z,0.90
2023-04-07T07:58:43.561Z,1.00
2023-04-07T08:01:11.145Z,0.90
2023-04-07T08:03:38.579Z,0.65
2023-04-07T08:06:06.880Z,0.60
2023-04-07T08:08:33.858Z,0.60
2023-04-07T08:11:01.080Z,0.80
2023-04-07T08:13:28.064Z,0.70
2023-04-07T08:15:55.277Z,0.70
2023-04-07T08:18:22.284Z,0.50
2023-04-07T08:20:49.466Z,0.60
2023-04-07T08:23:16.592Z,0.60
2023-04-07T08:25:43.888Z,0.50
2023-04-07T08:28:10.933Z,0.50
2023-04-07T08:30:38.483Z,0.50
2023-04-07T08:33:06.577Z,0.50
2023-04-07T08:35:33.803Z,0.40
2023-04-07T08:38:00.798Z,0.43
2023-04-07T08:40:27.792Z,0.50
2023-04-07T08:42:55.698Z,0.57
2023-04-07T08:45:23.036Z,0.50
2023-04-07T08:47:54.005Z,0.50
2023-04-07T08:50:22.325Z,0.40
2023-04-07T08:52:57.077Z,0.40
2023-04-07T08:55:24.634Z,0.40
2023-04-07T08:57:53.180Z,0.38
2023-04-07T09:00:21.139Z,0.30
2023-04-07T09:02:49.958Z,0.30
2023-04-07T09:05:17.081Z,0.55
2023-04-07T09:07:44.396Z,0.40
2023-04-07T09:10:11.957Z,0.47
2023-04-07T09:12:39.571Z,0.40
2023-04-07T09:15:08.224Z,0.30
2023-04-07T09:17:35.588Z,0.30
2023-04-07T09:20:03.428Z,0.47
2023-04-07T09:22:42.886Z,0.40
2023-04-07T09:25:23.125Z,0.40
2023-04-07T09:28:01.750Z,0.38
2023-04-07T09:30:33.132Z,0.55
2023-04-07T09:33:01.393Z,0.28
2023-04-07T09:35:28.998Z,0.25
2023-04-07T09:38:09.189Z,0.32
2023-04-07T09:40:38.120Z,0.30
2023-04-07T09:43:06.353Z,0.38
2023-04-07T09:45:36.558Z,0.40
2023-04-07T09:48:09.218Z,0.30
2023-04-07T09:50:40.270Z,0.30
2023-04-07T09:53:07.505Z,0.30
2023-04-07T09:55:40.133Z,0.30
2023-04-07T09:58:07.896Z,0.30
2023-04-07T10:00:35.962Z,0.30
2023-04-07T10:03:04.699Z,0.30
2023-04-07T10:05:32.157Z,0.30
2023-04-07T10:07:59.492Z,0.28
2023-04-07T10:10:29.106Z,0.30
2023-04-07T10:13:01.111Z,0.30
2023-04-07T10:15:28.294Z,0.20
2023-04-07T10:17:57.306Z,0.20
2023-04-07T10:20:24.988Z,0.20
2023-04-07T10:22:56.129Z,0.90
2023-04-07T10:28:07.231Z,1.00
2023-04-07T10:30:35.527Z,1.00
2023-04-07T10:33:02.823Z,0.90
2023-04-07T10:36:06.628Z,1.70
2023-04-07T10:38:34.036Z,1.08
2023-04-07T10:41:01.264Z,1.05
2023-04-07T10:43:47.102Z,0.60
2023-04-07T10:46:14.295Z,0.88
2023-04-07T10:48:41.398Z,1.30
2023-04-07T10:51:11.094Z,1.08
2023-04-07T10:53:38.783Z,0.40
2023-04-07T10:56:06.203Z,1.23
2023-04-07T10:58:34.110Z,0.70
2023-04-07T11:01:01.449Z,0.63
2023-04-07T11:03:30.889Z,0.63
2023-04-07T11:06:24.758Z,0.50
2023-04-07T11:08:52.024Z,0.80
2023-04-07T11:11:40.267Z,1.67
2023-04-07T11:14:07.637Z,1.15
2023-04-07T11:16:39.686Z,0.63
2023-04-07T11:19:07.022Z,0.40
2023-04-07T11:21:34.176Z,0.90
2023-04-07T11:24:01.296Z,0.30
2023-04-07T11:26:28.428Z,0.40
2023-04-07T11:28:57.993Z,0.88
2023-04-07T11:31:30.336Z,1.67
2023-04-07T11:33:59.791Z,1.10
2023-04-07T11:36:29.262Z,0.60
2023-04-07T11:38:58.503Z,0.40
2023-04-07T11:41:30.974Z,0.57
2023-04-07T11:44:26.783Z,0.52
2023-04-07T11:47:00.196Z,0.43
2023-04-07T11:49:29.108Z,0.40
2023-04-07T11:52:04.488Z,1.50
2023-04-07T11:54:47.473Z,1.23
2023-04-07T11:57:15.211Z,0.85
2023-04-07T11:59:42.621Z,0.85
2023-04-07T12:02:10.267Z,0.70
2023-04-07T12:04:40.602Z,0.93
2023-04-07T12:07:12.217Z,0.70
2023-04-07T12:12:10.907Z,0.80
2023-04-07T12:14:38.273Z,0.95
2023-04-07T12:17:05.462Z,0.85
2023-04-07T12:19:39.962Z,0.50
2023-04-07T12:22:06.931Z,0.73
2023-04-07T12:24:34.189Z,2.22
2023-04-07T12:27:01.207Z,0.80
2023-04-07T12:29:28.615Z,0.60
2023-04-07T12:31:56.772Z,0.60
2023-04-07T12:34:23.911Z,0.47
2023-04-07T12:36:51.182Z,0.88
2023-04-07T12:39:18.218Z,0.50
2023-04-07T12:41:55.149Z,0.57
2023-04-07T12:44:22.355Z,0.68
2023-04-07T12:46:49.348Z,0.47
2023-04-07T12:49:17.119Z,0.60
2023-04-07T12:51:44.070Z,0.35
2023-04-07T12:54:11.242Z,0.70
2023-04-07T12:56:38.261Z,0.90
2023-04-07T12:59:05.443Z,0.98
2023-04-07T13:01:36.190Z,1.10
2023-04-07T13:04:03.664Z,1.88
2023-04-07T13:06:31.254Z,1.38
2023-04-07T13:08:58.356Z,4.20
2023-04-07T13:11:26.074Z,4.05
2023-04-07T13:13:55.045Z,35.38
2023-04-07T13:16:24.342Z,38.95
2023-04-07T13:18:51.744Z,41.15
2023-04-07T13:23:50.918Z,36.30
2023-04-07T13:26:17.975Z,34.33
2023-04-07T13:28:46.488Z,27.33
2023-04-07T13:31:16.561Z,23.75
2023-04-07T13:33:43.840Z,23.23
2023-04-07T13:36:11.156Z,24.08
2023-04-07T13:38:38.235Z,21.67
2023-04-07T13:41:05.450Z,19.25
2023-04-07T13:43:33.006Z,21.50
2023-04-07T13:46:00.114Z,18.95
2023-04-07T13:48:27.457Z,16.05
2023-04-07T13:50:54.453Z,14.77
2023-04-07T13:53:22.163Z,14.52
2023-04-07T13:55:49.224Z,12.88
2023-04-07T13:58:17.407Z,13.23
2023-04-07T14:00:44.751Z,12.55
2023-04-07T14:03:12.077Z,10.95
2023-04-07T14:05:39.320Z,12.32
2023-04-07T14:08:06.529Z,11.02
2023-04-07T14:10:34.456Z,8.98
2023-04-07T14:13:04.317Z,8.02
2023-04-07T14:15:32.134Z,8.77
2023-04-07T14:18:00.356Z,8.60
2023-04-07T14:20:27.499Z,13.13
2023-04-07T14:22:55.204Z,9.40
2023-04-07T14:25:22.940Z,10.27
2023-04-07T14:27:50.004Z,7.80
2023-04-07T14:30:17.091Z,6.85
2023-04-07T14:32:44.366Z,6.15
2023-04-07T14:35:11.599Z,6.05
2023-04-07T14:37:38.936Z,5.15
2023-04-07T14:40:07.738Z,4.80
2023-04-07T14:42:36.111Z,4.07
2023-04-07T14:45:03.256Z,3.88
2023-04-07T14:47:30.583Z,4.45
2023-04-07T14:49:57.768Z,3.78
2023-04-07T14:52:25.219Z,6.18
2023-04-07T14:54:52.317Z,6.35
2023-04-07T14:57:19.516Z,5.78
2023-04-07T14:59:48.109Z,4.80
2023-04-07T15:02:15.321Z,4.32
2023-04-07T15:04:42.607Z,4.47
2023-04-07T15:07:09.983Z,3.70
2023-04-07T15:09:37.429Z,3.42
2023-04-07T15:12:05.539Z,3.92
2023-04-07T15:14:32.752Z,3.72
2023-04-07T15:16:59.862Z,3.40
2023-04-07T15:19:26.940Z,2.35
2023-04-07T15:21:54.143Z,4.32
2023-04-07T15:24:22.563Z,4.53
2023-04-07T15:26:50.375Z,4.55
2023-04-07T15:29:17.589Z,5.15
2023-04-07T15:31:44.915Z,3.70
2023-04-07T15:34:13.179Z,8.05
2023-04-07T15:36:40.730Z,2.60
2023-04-07T15:39:07.851Z,3.33
2023-04-07T15:41:34.868Z,2.85
2023-04-07T15:44:03.271Z,5.13
2023-04-07T15:46:32.473Z,5.43
2023-04-07T15:49:00.438Z,4.13
2023-04-07T15:51:30.105Z,7.90
2023-04-07T15:53:57.128Z,5.07
2023-04-07T15:56:25.094Z,3.05
2023-04-07T15:58:52.520Z,3.15
2023-04-07T16:01:19.918Z,3.78
2023-04-07T16:03:48.416Z,2.50
2023-04-07T16:06:15.827Z,2.55
2023-04-07T16:08:42.859Z,2.40
2023-04-07T16:11:09.870Z,3.13
2023-04-07T16:13:36.987Z,3.38
2023-04-07T16:16:04.237Z,1.80
2023-04-07T16:18:31.244Z,2.20
2023-04-07T16:21:03.658Z,3.10
2023-04-07T16:23:31.514Z,6.80
2023-04-07T16:25:58.505Z,2.45
2023-04-07T16:28:25.938Z,4.47
2023-04-07T16:30:53.039Z,5.72
2023-04-07T16:33:20.028Z,5.25
2023-04-07T16:35:47.248Z,3.92
2023-04-07T16:38:14.654Z,5.88
2023-04-07T16:40:47.896Z,4.50
2023-04-07T16:43:20.580Z,1.80
2023-04-07T16:45:51.776Z,4.40
2023-04-07T16:48:19.116Z,2.17
2023-04-07T16:50:48.061Z,6.13
2023-04-07T16:53:18.901Z,3.70
2023-04-07T16:55:46.486Z,5.88
2023-04-07T16:58:13.658Z,5.10
2023-04-07T17:00:40.793Z,3.83
2023-04-07T17:03:08.015Z,3.03
2023-04-07T17:05:35.186Z,3.22
2023-04-07T17:08:02.437Z,3.90
2023-04-07T17:10:29.567Z,4.07
2023-04-07T17:12:57.011Z,2.90
2023-04-07T17:15:27.071Z,4.50
2023-04-07T17:17:54.275Z,2.70
2023-04-07T17:20:23.040Z,2.90
2023-04-07T17:22:50.100Z,3.17
2023-04-07T17:25:18.981Z,9.95
2023-04-07T17:27:48.378Z,12.02
2023-04-07T17:30:15.695Z,3.08
2023-04-07T17:32:42.783Z,2.85
2023-04-07T17:35:09.994Z,2.75
2023-04-07T17:37:38.941Z,3.00
2023-04-07T17:40:06.928Z,2.85
2023-04-07T17:42:33.924Z,3.28
2023-04-07T17:45:02.200Z,3.30
2023-04-07T17:47:29.679Z,2.75
2023-04-07T17:49:56.790Z,2.53
2023-04-07T17:52:23.933Z,2.28
2023-04-07T17:54:51.354Z,3.03
2023-04-07T17:57:19.613Z,2.88
2023-04-07T17:59:48.355Z,3.58
2023-04-07T18:02:15.442Z,4.88
2023-04-07T18:04:42.722Z,3.30
2023-04-07T18:07:13.035Z,6.53
2023-04-07T18:09:43.313Z,3.30
2023-04-07T18:12:10.818Z,2.73
2023-04-07T18:14:40.698Z,3.42
2023-04-07T18:17:07.799Z,3.13
2023-04-07T18:19:35.278Z,3.35
2023-04-07T18:22:02.439Z,3.90
2023-04-07T18:24:30.046Z,3.55
2023-04-07T18:26:57.666Z,3.28
2023-04-07T18:29:25.266Z,3.28
2023-04-07T18:31:52.493Z,3.25
2023-04-07T18:34:19.681Z,3.35
2023-04-07T18:36:48.107Z,3.20
2023-04-07T18:39:17.079Z,2.72
2023-04-07T18:41:45.900Z,4.47
2023-04-07T18:44:13.739Z,3.28
2023-04-07T18:46:44.543Z,3.22
2023-04-07T18:49:11.785Z,3.10
2023-04-07T18:51:39.411Z,4.50
2023-04-07T18:54:06.865Z,4.40
2023-04-07T18:56:34.109Z,3.20
2023-04-07T18:59:01.738Z,3.40
2023-04-07T19:01:29.105Z,3.30
2023-04-07T19:03:58.061Z,3.67
2023-04-07T19:06:25.341Z,2.95
2023-04-07T19:08:52.807Z,2.95
2023-04-07T19:11:20.286Z,3.17
2023-04-07T19:13:48.762Z,3.05
2023-04-07T19:16:16.255Z,3.15
2023-04-07T19:18:44.685Z,3.80
2023-04-07T19:21:13.884Z,4.85
2023-04-07T19:23:43.877Z,4.28
2023-04-07T19:26:12.301Z,6.15
2023-04-07T19:28:41.762Z,6.18
2023-04-07T19:31:09.850Z,9.07
2023-04-07T19:33:38.272Z,27.77
2023-04-07T19:36:06.114Z,30.73
2023-04-07T19:38:33.341Z,42.58
2023-04-07T19:41:00.479Z,46.35
2023-04-07T19:43:27.669Z,54.88
2023-04-07T19:45:56.503Z,39.85
2023-04-07T19:48:23.896Z,44.30
2023-04-07T19:50:52.938Z,57.58
2023-04-07T19:53:20.409Z,49.53
2023-04-07T19:55:49.734Z,45.08
2023-04-07T19:58:19.197Z,44.97
2023-04-07T20:00:50.177Z,46.20
2023-04-07T20:05:48.580Z,41.38
2023-04-07T20:08:16.101Z,43.50
2023-04-07T20:10:43.459Z,41.55
2023-04-07T20:13:13.781Z,37.45
2023-04-07T20:15:41.607Z,34.35
2023-04-07T20:18:09.503Z,31.60
2023-04-07T20:20:37.345Z,30.30
2023-04-07T20:23:05.002Z,28.30
2023-04-07T20:25:34.263Z,27.20
2023-04-07T20:28:01.682Z,25.40
2023-04-07T20:30:28.974Z,23.73
2023-04-07T20:32:56.406Z,24.02
2023-04-07T20:35:24.723Z,22.50
2023-04-07T20:37:51.947Z,21.38
2023-04-07T20:40:21.049Z,20.33
2023-04-07T20:42:48.759Z,17.48
2023-04-07T20:45:16.489Z,17.25
2023-04-07T20:47:44.074Z,15.38
2023-04-07T20:50:11.787Z,14.45
2023-04-07T20:52:41.735Z,14.15
2023-04-07T20:55:10.072Z,13.55
2023-04-07T20:57:38.444Z,13.00
2023-04-07T21:00:07.036Z,11.35
2023-04-07T21:02:35.578Z,10.98
2023-04-07T21:05:04.376Z,10.73
2023-04-07T21:07:32.015Z,9.88
2023-04-07T21:09:59.352Z,9.63
2023-04-07T21:12:26.957Z,9.25
2023-04-07T21:14:54.074Z,8.23
2023-04-07T21:17:21.256Z,8.63
2023-04-07T21:19:48.426Z,8.75
2023-04-07T21:22:15.737Z,7.93
2023-04-07T21:24:42.912Z,9.18
2023-04-07T21:27:12.267Z,8.70
2023-04-07T21:29:42.821Z,8.73
2023-04-07T21:32:10.921Z,8.75
2023-04-07T21:34:38.136Z,7.75
2023-04-07T21:37:05.241Z,7.88
2023-04-07T21:39:37.034Z,10.23
2023-04-07T21:42:04.135Z,11.23
2023-04-07T21:44:31.922Z,12.75
2023-04-07T21:46:59.349Z,9.48
2023-04-07T21:49:26.483Z,8.85
2023-04-07T21:51:54.098Z,8.27
2023-04-07T21:54:21.271Z,8.10
2023-04-07T21:56:49.515Z,8.13
2023-04-07T21:59:17.934Z,8.23
2023-04-07T22:01:47.429Z,8.55
2023-04-07T22:04:14.978Z,7.30
2023-04-07T22:06:42.426Z,7.82
2023-04-07T22:09:10.701Z,7.68
2023-04-07T22:11:38.106Z,7.65
2023-04-07T22:14:05.497Z,6.68
2023-04-07T22:16:32.682Z,7.20
2023-04-07T22:19:00.038Z,6.32
2023-04-07T22:21:27.784Z,6.10
2023-04-07T22:23:55.585Z,6.65
2023-04-07T22:26:22.755Z,6.30
2023-04-07T22:28:49.993Z,6.35
2023-04-07T22:31:17.133Z,6.53
2023-04-07T22:33:44.371Z,6.43
2023-04-07T22:36:11.823Z,6.28
2023-04-07T22:38:38.877Z,6.90
2023-04-07T22:41:05.987Z,7.15
2023-04-07T22:43:33.268Z,6.22
2023-04-07T22:46:00.403Z,6.45
2023-04-07T22:48:28.612Z,6.03
2023-04-07T22:50:56.082Z,6.40
2023-04-07T22:53:23.183Z,6.78
2023-04-07T22:55:51.206Z,6.30
2023-04-07T22:58:18.353Z,6.63
2023-04-07T23:00:46.381Z,6.50
2023-04-07T23:03:15.401Z,5.97
2023-04-07T23:05:42.650Z,6.38
2023-04-07T23:08:09.679Z,6.13
2023-04-07T23:10:36.857Z,6.38
2023-04-07T23:13:03.890Z,6.40
2023-04-07T23:15:31.066Z,6.50
2023-04-07T23:17:58.289Z,6.40
2023-04-07T23:20:25.568Z,6.03
2023-04-07T23:22:52.679Z,6.22
2023-04-07T23:25:20.754Z,5.93
2023-04-07T23:27:47.761Z,6.07
2023-04-07T23:30:14.840Z,5.88
2023-04-07T23:32:42.304Z,6.47
2023-04-07T23:35:09.975Z,6.05
2023-04-07T23:37:37.246Z,6.10
2023-04-07T23:40:06.030Z,6.38
2023-04-07T23:42:33.040Z,6.15
2023-04-07T23:45:00.047Z,6.00
2023-04-07T23:47:27.444Z,6.75
2023-04-07T23:49:54.859Z,6.80
2023-04-07T23:52:22.446Z,6.50
2023-04-07T23:54:49.442Z,7.00
2023-04-07T23:57:16.549Z,7.45
2023-04-07T23:59:43.534Z,7.47
